sensor_id;sensor_type;location;lat;lon;timestamp;P1;durP1;ratioP1;P2;durP2;ratioP2
69253;SDS011;56364;41.816;12.448;2023-06-26T00:00:31;3.88;;;1.85;;
69253;SDS011;56364;41.816;12.448;2023-06-26T00:02:57;3.53;;;2.10;;
69253;SDS011;56364;41.816;12.448;2023-06-26T00:05:23;4.18;;;2.05;;
69253;SDS011;56364;41.816;12.448;2023-06-26T00:07:50;3.13;;;1.77;;
69253;SDS011;56364;41.816;12.448;2023-06-26T00:10:16;3.38;;;1.60;;
69253;SDS011;56364;41.816;12.448;2023-06-26T00:12:42;3.60;;;1.77;;
69253;SDS011;56364;41.816;12.448;2023-06-26T00:15:08;5.88;;;2.05;;
69253;SDS011;56364;41.816;12.448;2023-06-26T00:17:34;7.35;;;2.17;;
69253;SDS011;56364;41.816;12.448;2023-06-26T00:20:02;3.72;;;2.08;;
69253;SDS011;56364;41.816;12.448;2023-06-26T00:22:30;4.72;;;2.10;;
69253;SDS011;56364;41.816;12.448;2023-06-26T00:24:56;3.63;;;1.77;;
69253;SDS011;56364;41.816;12.448;2023-06-26T00:27:22;5.35;;;1.80;;
69253;SDS011;56364;41.816;12.448;2023-06-26T00:29:48;4.25;;;2.20;;
69253;SDS011;56364;41.816;12.448;2023-06-26T00:32:14;4.50;;;1.90;;
69253;SDS011;56364;41.816;12.448;2023-06-26T00:34:40;3.67;;;2.10;;
69253;SDS011;56364;41.816;12.448;2023-06-26T00:37:06;4.57;;;1.92;;
69253;SDS011;56364;41.816;12.448;2023-06-26T00:39:32;6.72;;;2.20;;
69253;SDS011;56364;41.816;12.448;2023-06-26T00:41:59;4.47;;;1.98;;
69253;SDS011;56364;41.816;12.448;2023-06-26T00:44:25;4.10;;;2.10;;
69253;SDS011;56364;41.816;12.448;2023-06-26T00:46:51;4.43;;;2.28;;
69253;SDS011;56364;41.816;12.448;2023-06-26T00:49:17;3.10;;;1.67;;
69253;SDS011;56364;41.816;12.448;2023-06-26T00:51:43;3.70;;;1.92;;
69253;SDS011;56364;41.816;12.448;2023-06-26T00:54:09;4.30;;;2.03;;
69253;SDS011;56364;41.816;12.448;2023-06-26T00:56:35;4.60;;;2.00;;
69253;SDS011;56364;41.816;12.448;2023-06-26T00:59:01;4.47;;;2.38;;
69253;SDS011;56364;41.816;12.448;2023-06-26T01:01:27;4.40;;;2.00;;
69253;SDS011;56364;41.816;12.448;2023-06-26T01:03:54;4.78;;;2.38;;
69253;SDS011;56364;41.816;12.448;2023-06-26T01:06:22;4.75;;;2.33;;
69253;SDS011;56364;41.816;12.448;2023-06-26T01:08:49;3.40;;;1.98;;
69253;SDS011;56364;41.816;12.448;2023-06-26T01:11:15;4.28;;;2.33;;
69253;SDS011;56364;41.816;12.448;2023-06-26T01:13:42;2.88;;;1.65;;
69253;SDS011;56364;41.816;12.448;2023-06-26T01:16:11;4.55;;;2.10;;
69253;SDS011;56364;41.816;12.448;2023-06-26T01:18:37;4.57;;;1.85;;
69253;SDS011;56364;41.816;12.448;2023-06-26T01:21:08;7.18;;;2.35;;
69253;SDS011;56364;41.816;12.448;2023-06-26T01:23:46;5.07;;;1.85;;
69253;SDS011;56364;41.816;12.448;2023-06-26T01:26:17;5.07;;;2.17;;
69253;SDS011;56364;41.816;12.448;2023-06-26T01:28:44;4.45;;;1.88;;
69253;SDS011;56364;41.816;12.448;2023-06-26T01:31:11;5.43;;;2.08;;
69253;SDS011;56364;41.816;12.448;2023-06-26T01:33:37;3.95;;;1.88;;
69253;SDS011;56364;41.816;12.448;2023-06-26T01:36:04;3.67;;;1.75;;
69253;SDS011;56364;41.816;12.448;2023-06-26T01:38:30;4.50;;;2.17;;
69253;SDS011;56364;41.816;12.448;2023-06-26T01:40:56;3.72;;;1.92;;
69253;SDS011;56364;41.816;12.448;2023-06-26T01:45:58;5.25;;;2.15;;
69253;SDS011;56364;41.816;12.448;2023-06-26T01:48:27;2.97;;;1.95;;
69253;SDS011;56364;41.816;12.448;2023-06-26T01:50:55;3.75;;;1.98;;
69253;SDS011;56364;41.816;12.448;2023-06-26T01:53:24;3.63;;;2.00;;
69253;SDS011;56364;41.816;12.448;2023-06-26T01:55:51;4.60;;;2.17;;
69253;SDS011;56364;41.816;12.448;2023-06-26T01:58:22;4.45;;;2.13;;
69253;SDS011;56364;41.816;12.448;2023-06-26T02:00:49;5.13;;;1.83;;
69253;SDS011;56364;41.816;12.448;2023-06-26T02:03:15;5.15;;;2.08;;
69253;SDS011;56364;41.816;12.448;2023-06-26T02:05:41;5.20;;;2.20;;
69253;SDS011;56364;41.816;12.448;2023-06-26T02:08:08;4.43;;;2.20;;
69253;SDS011;56364;41.816;12.448;2023-06-26T02:10:35;3.88;;;2.08;;
69253;SDS011;56364;41.816;12.448;2023-06-26T02:13:01;6.55;;;2.22;;
69253;SDS011;56364;41.816;12.448;2023-06-26T02:15:27;3.95;;;2.08;;
69253;SDS011;56364;41.816;12.448;2023-06-26T02:17:53;4.63;;;2.22;;
69253;SDS011;56364;41.816;12.448;2023-06-26T02:20:19;3.45;;;1.88;;
69253;SDS011;56364;41.816;12.448;2023-06-26T02:22:45;5.10;;;2.15;;
69253;SDS011;56364;41.816;12.448;2023-06-26T02:25:11;4.68;;;2.20;;
69253;SDS011;56364;41.816;12.448;2023-06-26T02:27:37;4.35;;;1.95;;
69253;SDS011;56364;41.816;12.448;2023-06-26T02:30:04;3.30;;;2.00;;
69253;SDS011;56364;41.816;12.448;2023-06-26T02:32:30;5.25;;;1.95;;
69253;SDS011;56364;41.816;12.448;2023-06-26T02:34:56;4.60;;;1.90;;
69253;SDS011;56364;41.816;12.448;2023-06-26T02:37:22;4.93;;;2.15;;
69253;SDS011;56364;41.816;12.448;2023-06-26T02:39:48;5.68;;;2.10;;
69253;SDS011;56364;41.816;12.448;2023-06-26T02:42:14;4.70;;;2.00;;
69253;SDS011;56364;41.816;12.448;2023-06-26T02:44:40;5.68;;;2.40;;
69253;SDS011;56364;41.816;12.448;2023-06-26T02:47:06;7.20;;;2.35;;
69253;SDS011;56364;41.816;12.448;2023-06-26T02:49:34;3.63;;;1.95;;
69253;SDS011;56364;41.816;12.448;2023-06-26T02:52:00;4.90;;;2.15;;
69253;SDS011;56364;41.816;12.448;2023-06-26T02:54:26;6.03;;;2.20;;
69253;SDS011;56364;41.816;12.448;2023-06-26T02:56:52;5.22;;;2.00;;
69253;SDS011;56364;41.816;12.448;2023-06-26T02:59:19;7.90;;;2.15;;
69253;SDS011;56364;41.816;12.448;2023-06-26T03:01:45;4.78;;;2.08;;
69253;SDS011;56364;41.816;12.448;2023-06-26T03:04:11;4.32;;;2.13;;
69253;SDS011;56364;41.816;12.448;2023-06-26T03:06:37;4.95;;;2.30;;
69253;SDS011;56364;41.816;12.448;2023-06-26T03:09:03;4.93;;;2.17;;
69253;SDS011;56364;41.816;12.448;2023-06-26T03:11:29;5.82;;;2.15;;
69253;SDS011;56364;41.816;12.448;2023-06-26T03:13:55;6.72;;;2.55;;
69253;SDS011;56364;41.816;12.448;2023-06-26T03:16:21;8.82;;;2.00;;
69253;SDS011;56364;41.816;12.448;2023-06-26T03:18:47;7.40;;;2.35;;
69253;SDS011;56364;41.816;12.448;2023-06-26T03:21:13;5.80;;;2.25;;
69253;SDS011;56364;41.816;12.448;2023-06-26T03:23:39;4.97;;;2.15;;
69253;SDS011;56364;41.816;12.448;2023-06-26T03:26:05;4.65;;;2.13;;
69253;SDS011;56364;41.816;12.448;2023-06-26T03:28:31;7.78;;;2.20;;
69253;SDS011;56364;41.816;12.448;2023-06-26T03:30:57;5.18;;;1.95;;
69253;SDS011;56364;41.816;12.448;2023-06-26T03:33:23;6.18;;;2.30;;
69253;SDS011;56364;41.816;12.448;2023-06-26T03:35:49;4.32;;;2.10;;
69253;SDS011;56364;41.816;12.448;2023-06-26T03:38:15;3.95;;;2.03;;
69253;SDS011;56364;41.816;12.448;2023-06-26T03:40:41;4.30;;;2.08;;
69253;SDS011;56364;41.816;12.448;2023-06-26T03:43:10;4.38;;;2.17;;
69253;SDS011;56364;41.816;12.448;2023-06-26T03:45:38;6.53;;;2.55;;
69253;SDS011;56364;41.816;12.448;2023-06-26T03:48:04;5.57;;;2.33;;
69253;SDS011;56364;41.816;12.448;2023-06-26T03:50:33;4.18;;;2.03;;
69253;SDS011;56364;41.816;12.448;2023-06-26T03:52:59;5.25;;;2.20;;
69253;SDS011;56364;41.816;12.448;2023-06-26T03:55:25;4.53;;;2.20;;
69253;SDS011;56364;41.816;12.448;2023-06-26T03:57:51;4.68;;;1.90;;
69253;SDS011;56364;41.816;12.448;2023-06-26T04:00:17;4.15;;;1.95;;
69253;SDS011;56364;41.816;12.448;2023-06-26T04:02:43;4.60;;;2.10;;
69253;SDS011;56364;41.816;12.448;2023-06-26T04:05:09;4.32;;;2.22;;
69253;SDS011;56364;41.816;12.448;2023-06-26T04:07:36;5.57;;;2.03;;
69253;SDS011;56364;41.816;12.448;2023-06-26T04:10:02;6.55;;;2.13;;
69253;SDS011;56364;41.816;12.448;2023-06-26T04:12:29;7.80;;;2.63;;
69253;SDS011;56364;41.816;12.448;2023-06-26T04:14:55;7.90;;;3.28;;
69253;SDS011;56364;41.816;12.448;2023-06-26T04:17:21;8.02;;;3.78;;
69253;SDS011;56364;41.816;12.448;2023-06-26T04:19:47;4.82;;;2.22;;
69253;SDS011;56364;41.816;12.448;2023-06-26T04:22:13;7.68;;;2.65;;
69253;SDS011;56364;41.816;12.448;2023-06-26T04:24:39;5.80;;;2.20;;
69253;SDS011;56364;41.816;12.448;2023-06-26T04:27:05;6.07;;;2.78;;
69253;SDS011;56364;41.816;12.448;2023-06-26T04:29:31;4.15;;;2.22;;
69253;SDS011;56364;41.816;12.448;2023-06-26T04:31:57;4.85;;;2.10;;
69253;SDS011;56364;41.816;12.448;2023-06-26T04:34:26;5.65;;;2.25;;
69253;SDS011;56364;41.816;12.448;2023-06-26T04:36:53;6.53;;;2.20;;
69253;SDS011;56364;41.816;12.448;2023-06-26T04:39:19;5.07;;;2.20;;
69253;SDS011;56364;41.816;12.448;2023-06-26T04:41:45;5.55;;;2.25;;
69253;SDS011;56364;41.816;12.448;2023-06-26T04:44:12;5.50;;;2.20;;
69253;SDS011;56364;41.816;12.448;2023-06-26T04:46:38;3.58;;;1.90;;
69253;SDS011;56364;41.816;12.448;2023-06-26T04:49:10;5.90;;;2.33;;
69253;SDS011;56364;41.816;12.448;2023-06-26T04:51:36;5.18;;;2.08;;
69253;SDS011;56364;41.816;12.448;2023-06-26T04:54:08;5.00;;;2.15;;
69253;SDS011;56364;41.816;12.448;2023-06-26T04:56:34;5.97;;;2.35;;
69253;SDS011;56364;41.816;12.448;2023-06-26T04:59:01;6.40;;;2.10;;
69253;SDS011;56364;41.816;12.448;2023-06-26T05:01:27;4.60;;;2.22;;
69253;SDS011;56364;41.816;12.448;2023-06-26T05:04:04;5.13;;;2.20;;
69253;SDS011;56364;41.816;12.448;2023-06-26T05:06:30;5.15;;;2.60;;
69253;SDS011;56364;41.816;12.448;2023-06-26T05:08:56;5.53;;;2.53;;
69253;SDS011;56364;41.816;12.448;2023-06-26T05:11:22;5.97;;;2.25;;
69253;SDS011;56364;41.816;12.448;2023-06-26T05:13:49;4.25;;;2.60;;
69253;SDS011;56364;41.816;12.448;2023-06-26T05:16:15;6.10;;;2.28;;
69253;SDS011;56364;41.816;12.448;2023-06-26T05:18:41;4.35;;;2.17;;
69253;SDS011;56364;41.816;12.448;2023-06-26T05:21:07;7.20;;;2.50;;
69253;SDS011;56364;41.816;12.448;2023-06-26T05:26:02;5.40;;;2.08;;
69253;SDS011;56364;41.816;12.448;2023-06-26T05:28:29;5.03;;;2.10;;
69253;SDS011;56364;41.816;12.448;2023-06-26T05:30:56;6.60;;;2.00;;
69253;SDS011;56364;41.816;12.448;2023-06-26T05:33:24;5.30;;;2.33;;
69253;SDS011;56364;41.816;12.448;2023-06-26T05:35:51;4.45;;;1.77;;
69253;SDS011;56364;41.816;12.448;2023-06-26T05:38:18;4.93;;;2.25;;
69253;SDS011;56364;41.816;12.448;2023-06-26T05:43:16;6.00;;;2.60;;
69253;SDS011;56364;41.816;12.448;2023-06-26T05:45:46;5.40;;;2.30;;
69253;SDS011;56364;41.816;12.448;2023-06-26T05:53:24;4.07;;;2.08;;
69253;SDS011;56364;41.816;12.448;2023-06-26T05:55:50;5.18;;;2.63;;
69253;SDS011;56364;41.816;12.448;2023-06-26T05:58:17;5.40;;;2.10;;
69253;SDS011;56364;41.816;12.448;2023-06-26T06:00:56;4.90;;;2.15;;
69253;SDS011;56364;41.816;12.448;2023-06-26T06:06:19;10.80;;;4.47;;
69253;SDS011;56364;41.816;12.448;2023-06-26T06:11:22;6.05;;;2.25;;
69253;SDS011;56364;41.816;12.448;2023-06-26T06:13:48;7.07;;;2.80;;
69253;SDS011;56364;41.816;12.448;2023-06-26T06:16:17;4.78;;;2.45;;
69253;SDS011;56364;41.816;12.448;2023-06-26T06:21:51;7.43;;;2.67;;
69253;SDS011;56364;41.816;12.448;2023-06-26T06:37:26;8.38;;;2.05;;
69253;SDS011;56364;41.816;12.448;2023-06-26T06:39:54;10.27;;;2.38;;
69253;SDS011;56364;41.816;12.448;2023-06-26T06:42:20;5.40;;;2.58;;
69253;SDS011;56364;41.816;12.448;2023-06-26T06:44:46;4.68;;;2.17;;
69253;SDS011;56364;41.816;12.448;2023-06-26T06:47:12;6.78;;;2.38;;
69253;SDS011;56364;41.816;12.448;2023-06-26T06:49:38;4.65;;;2.13;;
69253;SDS011;56364;41.816;12.448;2023-06-26T06:54:33;5.53;;;2.55;;
69253;SDS011;56364;41.816;12.448;2023-06-26T06:57:16;5.97;;;2.63;;
69253;SDS011;56364;41.816;12.448;2023-06-26T06:59:42;8.65;;;2.55;;
69253;SDS011;56364;41.816;12.448;2023-06-26T07:02:08;8.18;;;2.83;;
69253;SDS011;56364;41.816;12.448;2023-06-26T07:04:34;5.80;;;2.42;;
69253;SDS011;56364;41.816;12.448;2023-06-26T07:07:00;4.93;;;2.13;;
69253;SDS011;56364;41.816;12.448;2023-06-26T07:09:26;5.63;;;2.72;;
69253;SDS011;56364;41.816;12.448;2023-06-26T07:11:52;6.32;;;2.33;;
69253;SDS011;56364;41.816;12.448;2023-06-26T07:14:21;5.72;;;2.38;;
69253;SDS011;56364;41.816;12.448;2023-06-26T07:16:47;5.68;;;2.65;;
69253;SDS011;56364;41.816;12.448;2023-06-26T07:19:13;5.82;;;2.58;;
69253;SDS011;56364;41.816;12.448;2023-06-26T07:21:39;8.40;;;3.15;;
69253;SDS011;56364;41.816;12.448;2023-06-26T07:24:06;4.60;;;2.30;;
69253;SDS011;56364;41.816;12.448;2023-06-26T07:26:32;5.93;;;2.55;;
69253;SDS011;56364;41.816;12.448;2023-06-26T07:28:58;6.03;;;2.30;;
69253;SDS011;56364;41.816;12.448;2023-06-26T07:31:24;5.20;;;2.65;;
69253;SDS011;56364;41.816;12.448;2023-06-26T07:33:50;5.72;;;2.60;;
69253;SDS011;56364;41.816;12.448;2023-06-26T07:36:16;5.45;;;2.55;;
69253;SDS011;56364;41.816;12.448;2023-06-26T07:38:42;4.22;;;2.47;;
69253;SDS011;56364;41.816;12.448;2023-06-26T07:41:08;8.48;;;2.63;;
69253;SDS011;56364;41.816;12.448;2023-06-26T07:43:34;4.32;;;2.50;;
69253;SDS011;56364;41.816;12.448;2023-06-26T07:46:00;5.82;;;2.70;;
69253;SDS011;56364;41.816;12.448;2023-06-26T07:48:26;4.28;;;2.38;;
69253;SDS011;56364;41.816;12.448;2023-06-26T07:50:58;8.90;;;2.60;;
69253;SDS011;56364;41.816;12.448;2023-06-26T07:53:25;4.80;;;2.63;;
69253;SDS011;56364;41.816;12.448;2023-06-26T07:58:58;6.07;;;2.67;;
69253;SDS011;56364;41.816;12.448;2023-06-26T08:01:25;6.28;;;2.85;;
69253;SDS011;56364;41.816;12.448;2023-06-26T08:03:51;6.30;;;2.50;;
69253;SDS011;56364;41.816;12.448;2023-06-26T08:06:19;5.25;;;2.90;;
69253;SDS011;56364;41.816;12.448;2023-06-26T08:08:46;6.95;;;2.67;;
69253;SDS011;56364;41.816;12.448;2023-06-26T08:11:12;5.10;;;2.53;;
69253;SDS011;56364;41.816;12.448;2023-06-26T08:13:44;5.32;;;2.65;;
69253;SDS011;56364;41.816;12.448;2023-06-26T08:16:10;5.93;;;2.60;;
69253;SDS011;56364;41.816;12.448;2023-06-26T08:18:36;7.53;;;3.00;;
69253;SDS011;56364;41.816;12.448;2023-06-26T08:21:02;6.53;;;2.85;;
69253;SDS011;56364;41.816;12.448;2023-06-26T08:23:28;8.07;;;2.50;;
69253;SDS011;56364;41.816;12.448;2023-06-26T08:25:56;9.95;;;2.85;;
69253;SDS011;56364;41.816;12.448;2023-06-26T08:28:26;7.53;;;2.90;;
69253;SDS011;56364;41.816;12.448;2023-06-26T08:30:52;5.10;;;2.40;;
69253;SDS011;56364;41.816;12.448;2023-06-26T08:33:18;6.35;;;2.90;;
69253;SDS011;56364;41.816;12.448;2023-06-26T08:35:44;7.40;;;2.72;;
69253;SDS011;56364;41.816;12.448;2023-06-26T08:38:13;6.80;;;3.20;;
69253;SDS011;56364;41.816;12.448;2023-06-26T08:40:42;8.75;;;2.67;;
69253;SDS011;56364;41.816;12.448;2023-06-26T08:43:08;11.60;;;3.10;;
69253;SDS011;56364;41.816;12.448;2023-06-26T08:45:35;6.50;;;2.78;;
69253;SDS011;56364;41.816;12.448;2023-06-26T08:48:01;6.55;;;2.58;;
69253;SDS011;56364;41.816;12.448;2023-06-26T08:50:30;7.47;;;2.85;;
69253;SDS011;56364;41.816;12.448;2023-06-26T08:52:59;5.80;;;2.88;;
69253;SDS011;56364;41.816;12.448;2023-06-26T08:55:29;6.93;;;3.00;;
69253;SDS011;56364;41.816;12.448;2023-06-26T08:57:58;5.05;;;2.65;;
69253;SDS011;56364;41.816;12.448;2023-06-26T09:00:29;7.53;;;2.50;;
69253;SDS011;56364;41.816;12.448;2023-06-26T09:02:56;5.20;;;2.78;;
69253;SDS011;56364;41.816;12.448;2023-06-26T09:05:22;8.93;;;3.10;;
69253;SDS011;56364;41.816;12.448;2023-06-26T09:07:52;6.25;;;3.00;;
69253;SDS011;56364;41.816;12.448;2023-06-26T09:10:20;5.57;;;2.45;;
69253;SDS011;56364;41.816;12.448;2023-06-26T09:12:47;5.55;;;2.83;;
69253;SDS011;56364;41.816;12.448;2023-06-26T09:15:19;6.50;;;3.10;;
69253;SDS011;56364;41.816;12.448;2023-06-26T09:20:12;15.15;;;3.60;;
69253;SDS011;56364;41.816;12.448;2023-06-26T09:22:41;6.18;;;2.78;;
69253;SDS011;56364;41.816;12.448;2023-06-26T09:25:07;9.60;;;3.25;;
69253;SDS011;56364;41.816;12.448;2023-06-26T09:27:34;8.95;;;3.40;;
69253;SDS011;56364;41.816;12.448;2023-06-26T09:30:03;7.28;;;3.15;;
69253;SDS011;56364;41.816;12.448;2023-06-26T09:32:33;6.03;;;3.30;;
69253;SDS011;56364;41.816;12.448;2023-06-26T09:37:34;10.80;;;3.13;;
69253;SDS011;56364;41.816;12.448;2023-06-26T09:40:27;7.88;;;3.03;;
69253;SDS011;56364;41.816;12.448;2023-06-26T09:43:07;5.60;;;3.33;;
69253;SDS011;56364;41.816;12.448;2023-06-26T09:45:34;6.50;;;3.13;;
69253;SDS011;56364;41.816;12.448;2023-06-26T09:48:20;7.60;;;2.80;;
69253;SDS011;56364;41.816;12.448;2023-06-26T09:51:07;9.15;;;3.33;;
69253;SDS011;56364;41.816;12.448;2023-06-26T09:53:39;6.20;;;2.60;;
69253;SDS011;56364;41.816;12.448;2023-06-26T09:56:14;6.20;;;2.90;;
69253;SDS011;56364;41.816;12.448;2023-06-26T09:58:43;8.70;;;3.60;;
69253;SDS011;56364;41.816;12.448;2023-06-26T10:01:10;6.57;;;2.85;;
69253;SDS011;56364;41.816;12.448;2023-06-26T10:03:36;6.32;;;2.70;;
69253;SDS011;56364;41.816;12.448;2023-06-26T10:06:02;5.57;;;3.03;;
69253;SDS011;56364;41.816;12.448;2023-06-26T10:08:28;12.02;;;3.47;;
69253;SDS011;56364;41.816;12.448;2023-06-26T10:11:00;11.68;;;4.00;;
69253;SDS011;56364;41.816;12.448;2023-06-26T10:31:30;9.98;;;2.78;;
69253;SDS011;56364;41.816;12.448;2023-06-26T10:33:56;8.93;;;3.05;;
69253;SDS011;56364;41.816;12.448;2023-06-26T10:36:30;8.90;;;2.85;;
69253;SDS011;56364;41.816;12.448;2023-06-26T10:38:58;7.50;;;3.10;;
69253;SDS011;56364;41.816;12.448;2023-06-26T10:41:25;9.52;;;3.60;;
69253;SDS011;56364;41.816;12.448;2023-06-26T10:46:25;7.28;;;3.13;;
69253;SDS011;56364;41.816;12.448;2023-06-26T10:48:57;9.40;;;3.03;;
69253;SDS011;56364;41.816;12.448;2023-06-26T10:51:26;7.70;;;3.25;;
69253;SDS011;56364;41.816;12.448;2023-06-26T10:53:55;6.28;;;3.25;;
69253;SDS011;56364;41.816;12.448;2023-06-26T10:56:40;5.38;;;2.80;;
69253;SDS011;56364;41.816;12.448;2023-06-26T10:59:20;5.60;;;2.88;;
69253;SDS011;56364;41.816;12.448;2023-06-26T11:04:37;11.20;;;3.30;;
69253;SDS011;56364;41.816;12.448;2023-06-26T11:07:16;4.50;;;2.40;;
69253;SDS011;56364;41.816;12.448;2023-06-26T11:09:59;9.23;;;3.10;;
69253;SDS011;56364;41.816;12.448;2023-06-26T11:12:42;6.30;;;2.70;;
69253;SDS011;56364;41.816;12.448;2023-06-26T11:15:16;5.40;;;2.75;;
69253;SDS011;56364;41.816;12.448;2023-06-26T11:18:03;5.90;;;2.65;;
69253;SDS011;56364;41.816;12.448;2023-06-26T11:20:38;6.57;;;2.60;;
69253;SDS011;56364;41.816;12.448;2023-06-26T11:23:04;5.13;;;2.42;;
69253;SDS011;56364;41.816;12.448;2023-06-26T11:25:39;5.90;;;2.63;;
69253;SDS011;56364;41.816;12.448;2023-06-26T11:33:29;7.88;;;2.67;;
69253;SDS011;56364;41.816;12.448;2023-06-26T11:35:55;4.63;;;2.53;;
69253;SDS011;56364;41.816;12.448;2023-06-26T11:38:21;7.47;;;3.33;;
69253;SDS011;56364;41.816;12.448;2023-06-26T11:40:49;9.70;;;3.50;;
69253;SDS011;56364;41.816;12.448;2023-06-26T11:43:18;9.88;;;4.10;;
69253;SDS011;56364;41.816;12.448;2023-06-26T11:45:45;10.13;;;3.40;;
69253;SDS011;56364;41.816;12.448;2023-06-26T11:48:12;8.68;;;3.47;;
69253;SDS011;56364;41.816;12.448;2023-06-26T11:50:38;10.57;;;3.63;;
69253;SDS011;56364;41.816;12.448;2023-06-26T11:53:04;7.97;;;3.80;;
69253;SDS011;56364;41.816;12.448;2023-06-26T11:55:40;7.75;;;3.08;;
69253;SDS011;56364;41.816;12.448;2023-06-26T11:58:24;7.05;;;3.25;;
69253;SDS011;56364;41.816;12.448;2023-06-26T12:00:56;10.13;;;4.13;;
69253;SDS011;56364;41.816;12.448;2023-06-26T12:03:22;9.23;;;3.35;;
69253;SDS011;56364;41.816;12.448;2023-06-26T12:05:48;8.63;;;3.20;;
69253;SDS011;56364;41.816;12.448;2023-06-26T12:08:17;12.18;;;3.50;;
69253;SDS011;56364;41.816;12.448;2023-06-26T12:10:49;7.30;;;3.25;;
69253;SDS011;56364;41.816;12.448;2023-06-26T12:13:18;7.88;;;3.20;;
69253;SDS011;56364;41.816;12.448;2023-06-26T12:15:45;7.32;;;3.42;;
69253;SDS011;56364;41.816;12.448;2023-06-26T12:18:17;7.95;;;3.40;;
69253;SDS011;56364;41.816;12.448;2023-06-26T12:20:48;10.23;;;2.90;;
69253;SDS011;56364;41.816;12.448;2023-06-26T12:26:19;6.32;;;3.53;;
69253;SDS011;56364;41.816;12.448;2023-06-26T12:31:21;6.22;;;3.40;;
69253;SDS011;56364;41.816;12.448;2023-06-26T12:33:48;9.57;;;3.33;;
69253;SDS011;56364;41.816;12.448;2023-06-26T12:36:14;18.20;;;3.72;;
69253;SDS011;56364;41.816;12.448;2023-06-26T12:38:41;9.07;;;3.42;;
69253;SDS011;56364;41.816;12.448;2023-06-26T12:41:13;9.93;;;3.55;;
69253;SDS011;56364;41.816;12.448;2023-06-26T12:43:39;10.35;;;3.70;;
69253;SDS011;56364;41.816;12.448;2023-06-26T12:46:06;12.20;;;4.18;;
69253;SDS011;56364;41.816;12.448;2023-06-26T12:51:24;9.50;;;3.38;;
69253;SDS011;56364;41.816;12.448;2023-06-26T12:53:51;9.52;;;3.35;;
69253;SDS011;56364;41.816;12.448;2023-06-26T12:56:18;7.05;;;3.53;;
69253;SDS011;56364;41.816;12.448;2023-06-26T12:58:45;6.63;;;3.55;;
69253;SDS011;56364;41.816;12.448;2023-06-26T13:01:11;12.15;;;3.30;;
69253;SDS011;56364;41.816;12.448;2023-06-26T13:03:41;13.02;;;3.72;;
69253;SDS011;56364;41.816;12.448;2023-06-26T13:06:08;7.38;;;3.10;;
69253;SDS011;56364;41.816;12.448;2023-06-26T13:11:09;9.02;;;3.55;;
69253;SDS011;56364;41.816;12.448;2023-06-26T13:13:35;9.18;;;4.32;;
69253;SDS011;56364;41.816;12.448;2023-06-26T13:16:01;10.40;;;3.28;;
69253;SDS011;56364;41.816;12.448;2023-06-26T13:18:31;7.20;;;3.28;;
69253;SDS011;56364;41.816;12.448;2023-06-26T13:20:57;6.97;;;3.05;;
69253;SDS011;56364;41.816;12.448;2023-06-26T13:23:23;7.68;;;3.42;;
69253;SDS011;56364;41.816;12.448;2023-06-26T13:25:49;8.00;;;3.72;;
69253;SDS011;56364;41.816;12.448;2023-06-26T13:28:25;7.57;;;3.40;;
69253;SDS011;56364;41.816;12.448;2023-06-26T13:30:51;7.65;;;3.95;;
69253;SDS011;56364;41.816;12.448;2023-06-26T13:33:18;6.85;;;3.47;;
69253;SDS011;56364;41.816;12.448;2023-06-26T13:35:44;6.53;;;3.08;;
69253;SDS011;56364;41.816;12.448;2023-06-26T13:38:10;7.72;;;3.95;;
69253;SDS011;56364;41.816;12.448;2023-06-26T13:40:36;7.90;;;4.75;;
69253;SDS011;56364;41.816;12.448;2023-06-26T13:43:03;8.30;;;3.55;;
69253;SDS011;56364;41.816;12.448;2023-06-26T13:45:29;10.63;;;3.83;;
69253;SDS011;56364;41.816;12.448;2023-06-26T13:48:02;9.65;;;4.57;;
69253;SDS011;56364;41.816;12.448;2023-06-26T13:50:29;11.10;;;3.25;;
69253;SDS011;56364;41.816;12.448;2023-06-26T13:52:55;5.75;;;2.78;;
69253;SDS011;56364;41.816;12.448;2023-06-26T13:55:21;10.65;;;4.05;;
69253;SDS011;56364;41.816;12.448;2023-06-26T13:57:47;7.18;;;3.13;;
69253;SDS011;56364;41.816;12.448;2023-06-26T14:00:14;6.97;;;3.47;;
69253;SDS011;56364;41.816;12.448;2023-06-26T14:02:45;8.05;;;3.92;;
69253;SDS011;56364;41.816;12.448;2023-06-26T14:05:11;5.75;;;3.00;;
69253;SDS011;56364;41.816;12.448;2023-06-26T14:07:38;8.50;;;4.32;;
69253;SDS011;56364;41.816;12.448;2023-06-26T14:10:05;8.27;;;3.75;;
69253;SDS011;56364;41.816;12.448;2023-06-26T14:12:31;7.03;;;3.00;;
69253;SDS011;56364;41.816;12.448;2023-06-26T14:14:58;8.13;;;3.20;;
69253;SDS011;56364;41.816;12.448;2023-06-26T14:17:24;7.57;;;3.80;;
69253;SDS011;56364;41.816;12.448;2023-06-26T14:19:51;8.80;;;3.65;;
69253;SDS011;56364;41.816;12.448;2023-06-26T14:22:20;8.63;;;3.67;;
69253;SDS011;56364;41.816;12.448;2023-06-26T14:27:12;7.30;;;4.22;;
69253;SDS011;56364;41.816;12.448;2023-06-26T14:29:41;5.97;;;2.92;;
69253;SDS011;56364;41.816;12.448;2023-06-26T14:32:08;7.28;;;3.38;;
69253;SDS011;56364;41.816;12.448;2023-06-26T14:34:34;6.10;;;3.58;;
69253;SDS011;56364;41.816;12.448;2023-06-26T14:37:00;7.57;;;3.47;;
69253;SDS011;56364;41.816;12.448;2023-06-26T14:39:26;8.57;;;4.30;;
69253;SDS011;56364;41.816;12.448;2023-06-26T14:41:52;6.15;;;3.67;;
69253;SDS011;56364;41.816;12.448;2023-06-26T14:44:20;6.20;;;3.65;;
69253;SDS011;56364;41.816;12.448;2023-06-26T14:46:50;9.40;;;5.55;;
69253;SDS011;56364;41.816;12.448;2023-06-26T14:49:16;6.22;;;3.40;;
69253;SDS011;56364;41.816;12.448;2023-06-26T14:51:44;6.10;;;2.95;;
69253;SDS011;56364;41.816;12.448;2023-06-26T14:54:10;6.60;;;3.03;;
69253;SDS011;56364;41.816;12.448;2023-06-26T14:56:36;9.80;;;4.22;;
69253;SDS011;56364;41.816;12.448;2023-06-26T14:59:02;6.75;;;3.20;;
69253;SDS011;56364;41.816;12.448;2023-06-26T15:03:58;10.35;;;3.97;;
69253;SDS011;56364;41.816;12.448;2023-06-26T15:06:28;7.10;;;3.70;;
69253;SDS011;56364;41.816;12.448;2023-06-26T15:08:54;7.10;;;3.55;;
69253;SDS011;56364;41.816;12.448;2023-06-26T15:11:20;7.57;;;3.55;;
69253;SDS011;56364;41.816;12.448;2023-06-26T15:13:46;6.32;;;3.45;;
69253;SDS011;56364;41.816;12.448;2023-06-26T15:16:12;6.95;;;3.63;;
69253;SDS011;56364;41.816;12.448;2023-06-26T15:18:39;7.60;;;3.85;;
69253;SDS011;56364;41.816;12.448;2023-06-26T15:21:06;9.45;;;3.85;;
69253;SDS011;56364;41.816;12.448;2023-06-26T15:23:33;6.80;;;3.22;;
69253;SDS011;56364;41.816;12.448;2023-06-26T15:25:59;6.85;;;3.40;;
69253;SDS011;56364;41.816;12.448;2023-06-26T15:28:25;6.68;;;3.20;;
69253;SDS011;56364;41.816;12.448;2023-06-26T15:30:55;7.57;;;3.60;;
69253;SDS011;56364;41.816;12.448;2023-06-26T15:33:21;6.00;;;2.85;;
69253;SDS011;56364;41.816;12.448;2023-06-26T15:35:47;6.78;;;2.95;;
69253;SDS011;56364;41.816;12.448;2023-06-26T15:38:13;8.77;;;3.72;;
69253;SDS011;56364;41.816;12.448;2023-06-26T15:40:39;6.28;;;3.13;;
69253;SDS011;56364;41.816;12.448;2023-06-26T15:43:05;7.05;;;3.30;;
69253;SDS011;56364;41.816;12.448;2023-06-26T15:45:31;5.95;;;3.05;;
69253;SDS011;56364;41.816;12.448;2023-06-26T15:47:57;7.05;;;2.60;;
69253;SDS011;56364;41.816;12.448;2023-06-26T15:50:23;10.18;;;2.90;;
69253;SDS011;56364;41.816;12.448;2023-06-26T15:52:49;5.85;;;2.45;;
69253;SDS011;56364;41.816;12.448;2023-06-26T15:55:16;6.70;;;3.63;;
69253;SDS011;56364;41.816;12.448;2023-06-26T15:57:42;6.95;;;3.00;;
69253;SDS011;56364;41.816;12.448;2023-06-26T16:00:08;7.35;;;3.20;;
69253;SDS011;56364;41.816;12.448;2023-06-26T16:02:36;8.63;;;3.13;;
69253;SDS011;56364;41.816;12.448;2023-06-26T16:05:02;8.02;;;2.80;;